sensor_id;sensor_type;location;lat;lon;timestamp;pressure;altitude;pressure_sealevel;temperature;humidity
2841;BME280;53423;49.224;12.074;2023-03-14T00:00:28;96109.94;;;11.49;72.24
2841;BME280;53423;49.224;12.074;2023-03-14T00:02:56;96112.19;;;11.39;73.10
2841;BME280;53423;49.224;12.074;2023-03-14T00:05:26;96110.16;;;11.34;72.97
2841;BME280;53423;49.224;12.074;2023-03-14T00:07:54;96108.09;;;11.56;70.84
2841;BME280;53423;49.224;12.074;2023-03-14T00:10:22;96096.88;;;11.29;71.87
2841;BME280;53423;49.224;12.074;2023-03-14T00:12:50;96091.06;;;11.27;72.52
2841;BME280;53423;49.224;12.074;2023-03-14T00:15:18;96098.19;;;11.00;72.74
2841;BME280;53423;49.224;12.074;2023-03-14T00:17:46;96088.53;;;10.88;73.44
2841;BME280;53423;49.224;12.074;2023-03-14T00:20:14;96093.19;;;10.86;74.52
2841;BME280;53423;49.224;12.074;2023-03-14T00:22:43;96073.63;;;10.75;75.03
2841;BME280;53423;49.224;12.074;2023-03-14T00:25:11;96045.66;;;10.69;74.56
2841;BME280;53423;49.224;12.074;2023-03-14T00:27:39;96035.97;;;10.70;74.41
2841;BME280;53423;49.224;12.074;2023-03-14T00:30:09;96019.25;;;10.71;74.61
2841;BME280;53423;49.224;12.074;2023-03-14T00:32:37;95983.44;;;10.39;76.76
2841;BME280;53423;49.224;12.074;2023-03-14T00:35:06;95990.50;;;10.45;76.41
2841;BME280;53423;49.224;12.074;2023-03-14T00:37:34;96066.44;;;10.32;77.09
2841;BME280;53423;49.224;12.074;2023-03-14T00:40:04;96065.03;;;10.29;76.72
2841;BME280;53423;49.224;12.074;2023-03-14T00:42:34;96090.81;;;10.39;76.51
2841;BME280;53423;49.224;12.074;2023-03-14T00:45:02;96107.16;;;10.34;76.17
2841;BME280;53423;49.224;12.074;2023-03-14T00:47:30;96122.66;;;10.42;75.97
2841;BME280;53423;49.224;12.074;2023-03-14T00:49:58;96119.81;;;10.44;75.62
2841;BME280;53423;49.224;12.074;2023-03-14T00:52:26;96131.72;;;10.53;75.11
2841;BME280;53423;49.224;12.074;2023-03-14T00:54:54;96150.06;;;10.40;75.70
2841;BME280;53423;49.224;12.074;2023-03-14T00:57:23;96164.56;;;10.36;77.18
2841;BME280;53423;49.224;12.074;2023-03-14T00:59:51;96180.47;;;10.28;76.87
2841;BME280;53423;49.224;12.074;2023-03-14T01:02:19;96177.44;;;10.37;77.31
2841;BME280;53423;49.224;12.074;2023-03-14T01:04:47;96194.19;;;10.56;76.87
2841;BME280;53423;49.224;12.074;2023-03-14T01:07:16;96188.16;;;10.68;76.29
2841;BME280;53423;49.224;12.074;2023-03-14T01:09:44;96198.59;;;10.55;77.12
2841;BME280;53423;49.224;12.074;2023-03-14T01:12:12;96185.31;;;10.44;76.73
2841;BME280;53423;49.224;12.074;2023-03-14T01:14:41;96178.88;;;10.66;76.59
2841;BME280;53423;49.224;12.074;2023-03-14T01:17:09;96174.25;;;10.74;75.82
2841;BME280;53423;49.224;12.074;2023-03-14T01:19:37;96164.16;;;10.84;75.66
2841;BME280;53423;49.224;12.074;2023-03-14T01:22:05;96155.09;;;10.87;74.76
2841;BME280;53423;49.224;12.074;2023-03-14T01:24:33;96151.06;;;10.78;75.85
2841;BME280;53423;49.224;12.074;2023-03-14T01:27:01;96146.03;;;10.76;75.09
2841;BME280;53423;49.224;12.074;2023-03-14T01:29:29;96134.50;;;10.90;75.58
2841;BME280;53423;49.224;12.074;2023-03-14T01:31:58;96130.50;;;10.75;74.46
2841;BME280;53423;49.224;12.074;2023-03-14T01:34:26;96116.16;;;10.90;74.83
2841;BME280;53423;49.224;12.074;2023-03-14T01:36:54;96116.56;;;10.87;74.29
2841;BME280;53423;49.224;12.074;2023-03-14T01:39:22;96111.88;;;11.02;74.19
2841;BME280;53423;49.224;12.074;2023-03-14T01:41:50;96110.69;;;11.05;73.93
2841;BME280;53423;49.224;12.074;2023-03-14T01:44:18;96095.38;;;11.02;74.07
2841;BME280;53423;49.224;12.074;2023-03-14T01:46:46;96085.69;;;10.96;72.80
2841;BME280;53423;49.224;12.074;2023-03-14T01:49:24;96084.78;;;10.58;74.80
2841;BME280;53423;49.224;12.074;2023-03-14T01:51:56;96079.69;;;10.82;74.10
2841;BME280;53423;49.224;12.074;2023-03-14T01:54:28;96051.09;;;10.68;74.58
2841;BME280;53423;49.224;12.074;2023-03-14T01:57:04;96039.44;;;10.44;74.69
2841;BME280;53423;49.224;12.074;2023-03-14T01:59:34;96039.44;;;10.51;74.92
2841;BME280;53423;49.224;12.074;2023-03-14T02:02:04;96040.66;;;10.48;73.88
2841;BME280;53423;49.224;12.074;2023-03-14T02:04:36;96033.78;;;10.54;73.53
2841;BME280;53423;49.224;12.074;2023-03-14T02:07:10;96028.38;;;10.42;73.45
2841;BME280;53423;49.224;12.074;2023-03-14T02:09:41;96033.38;;;10.50;73.96
2841;BME280;53423;49.224;12.074;2023-03-14T02:12:09;96028.31;;;10.62;72.48
2841;BME280;53423;49.224;12.074;2023-03-14T02:14:38;95998.31;;;10.58;73.70
2841;BME280;53423;49.224;12.074;2023-03-14T02:17:07;95988.28;;;10.42;73.28
2841;BME280;53423;49.224;12.074;2023-03-14T02:19:49;95977.00;;;10.41;74.68
2841;BME280;53423;49.224;12.074;2023-03-14T02:22:18;95984.50;;;10.25;74.48
2841;BME280;53423;49.224;12.074;2023-03-14T02:24:53;96013.09;;;10.26;75.09
2841;BME280;53423;49.224;12.074;2023-03-14T02:27:27;96010.03;;;10.36;74.31
2841;BME280;53423;49.224;12.074;2023-03-14T02:29:58;96022.31;;;10.35;75.30
2841;BME280;53423;49.224;12.074;2023-03-14T02:32:29;96022.75;;;10.32;75.38
2841;BME280;53423;49.224;12.074;2023-03-14T02:34:59;96031.81;;;10.17;75.79
2841;BME280;53423;49.224;12.074;2023-03-14T02:37:34;96030.81;;;10.24;75.92
2841;BME280;53423;49.224;12.074;2023-03-14T02:40:03;96032.41;;;10.32;74.96
2841;BME280;53423;49.224;12.074;2023-03-14T02:42:33;96019.31;;;10.38;74.72
2841;BME280;53423;49.224;12.074;2023-03-14T02:48:18;96027.78;;;10.21;75.25
2841;BME280;53423;49.224;12.074;2023-03-14T02:50:50;96040.88;;;10.21;74.86
2841;BME280;53423;49.224;12.074;2023-03-14T02:53:23;96043.09;;;10.24;74.84
2841;BME280;53423;49.224;12.074;2023-03-14T02:55:52;96038.84;;;10.36;74.37
2841;BME280;53423;49.224;12.074;2023-03-14T02:58:22;96050.16;;;10.36;74.78
2841;BME280;53423;49.224;12.074;2023-03-14T03:00:50;96057.19;;;10.42;74.16
2841;BME280;53423;49.224;12.074;2023-03-14T03:03:18;96047.72;;;10.41;74.12
2841;BME280;53423;49.224;12.074;2023-03-14T03:05:48;96052.09;;;10.60;73.77
2841;BME280;53423;49.224;12.074;2023-03-14T03:08:17;96055.75;;;10.53;73.68
2841;BME280;53423;49.224;12.074;2023-03-14T03:10:45;96060.38;;;10.51;73.96
2841;BME280;53423;49.224;12.074;2023-03-14T03:13:13;96064.03;;;10.56;74.02
2841;BME280;53423;49.224;12.074;2023-03-14T03:15:43;96069.22;;;10.69;72.93
2841;BME280;53423;49.224;12.074;2023-03-14T03:18:11;96066.22;;;10.59;73.20
2841;BME280;53423;49.224;12.074;2023-03-14T03:20:39;96067.44;;;10.44;73.86
2841;BME280;53423;49.224;12.074;2023-03-14T03:23:07;96065.66;;;10.31;74.41
2841;BME280;53423;49.224;12.074;2023-03-14T03:25:35;96060.03;;;10.15;74.52
2841;BME280;53423;49.224;12.074;2023-03-14T03:28:03;96057.56;;;10.06;74.60
2841;BME280;53423;49.224;12.074;2023-03-14T03:30:37;96057.78;;;10.12;75.08
2841;BME280;53423;49.224;12.074;2023-03-14T03:33:07;96050.13;;;10.10;75.04
2841;BME280;53423;49.224;12.074;2023-03-14T03:35:41;96049.53;;;10.08;74.44
2841;BME280;53423;49.224;12.074;2023-03-14T03:38:10;96054.38;;;10.11;74.08
2841;BME280;53423;49.224;12.074;2023-03-14T03:40:38;96056.78;;;10.06;74.45
2841;BME280;53423;49.224;12.074;2023-03-14T03:43:06;96056.97;;;10.04;74.10
2841;BME280;53423;49.224;12.074;2023-03-14T03:45:34;96052.34;;;10.13;73.99
2841;BME280;53423;49.224;12.074;2023-03-14T03:48:02;96059.00;;;10.16;74.20
2841;BME280;53423;49.224;12.074;2023-03-14T03:50:32;96049.28;;;9.96;74.05
2841;BME280;53423;49.224;12.074;2023-03-14T03:53:00;96051.16;;;10.09;74.37
2841;BME280;53423;49.224;12.074;2023-03-14T03:55:28;96041.09;;;10.13;74.04
2841;BME280;53423;49.224;12.074;2023-03-14T03:57:56;96033.59;;;9.96;74.17
2841;BME280;53423;49.224;12.074;2023-03-14T04:00:24;96019.53;;;9.91;74.21
2841;BME280;53423;49.224;12.074;2023-03-14T04:02:52;96014.47;;;9.76;75.04
2841;BME280;53423;49.224;12.074;2023-03-14T04:05:20;96018.09;;;9.95;74.55
2841;BME280;53423;49.224;12.074;2023-03-14T04:07:49;96020.91;;;10.00;73.58
2841;BME280;53423;49.224;12.074;2023-03-14T04:10:17;96031.19;;;9.88;74.60
2841;BME280;53423;49.224;12.074;2023-03-14T04:12:45;96021.53;;;9.95;73.90
2841;BME280;53423;49.224;12.074;2023-03-14T04:15:13;96025.75;;;9.90;74.33
2841;BME280;53423;49.224;12.074;2023-03-14T04:17:41;96020.09;;;9.80;74.58
2841;BME280;53423;49.224;12.074;2023-03-14T04:20:10;96015.47;;;9.75;74.68
2841;BME280;53423;49.224;12.074;2023-03-14T04:22:38;96003.78;;;9.71;74.49
2841;BME280;53423;49.224;12.074;2023-03-14T04:25:11;95996.16;;;9.76;74.29
2841;BME280;53423;49.224;12.074;2023-03-14T04:27:39;95999.38;;;9.65;74.73
2841;BME280;53423;49.224;12.074;2023-03-14T04:30:08;95999.56;;;9.77;74.25
2841;BME280;53423;49.224;12.074;2023-03-14T04:32:38;96004.81;;;9.70;74.99
2841;BME280;53423;49.224;12.074;2023-03-14T04:35:07;95988.69;;;9.67;74.96
2841;BME280;53423;49.224;12.074;2023-03-14T04:37:35;95992.94;;;9.81;74.67
2841;BME280;53423;49.224;12.074;2023-03-14T04:40:04;95984.88;;;9.69;74.64
2841;BME280;53423;49.224;12.074;2023-03-14T04:42:34;95977.03;;;9.56;74.69
2841;BME280;53423;49.224;12.074;2023-03-14T04:45:03;95976.22;;;9.56;74.65
2841;BME280;53423;49.224;12.074;2023-03-14T04:47:31;95977.44;;;9.60;74.50
2841;BME280;53423;49.224;12.074;2023-03-14T04:49:59;95979.44;;;9.45;75.52
2841;BME280;53423;49.224;12.074;2023-03-14T04:52:27;95980.03;;;9.34;75.71
2841;BME280;53423;49.224;12.074;2023-03-14T04:54:54;95973.22;;;9.59;74.57
2841;BME280;53423;49.224;12.074;2023-03-14T04:57:22;95972.41;;;9.58;73.95
2841;BME280;53423;49.224;12.074;2023-03-14T04:59:51;95970.38;;;9.47;74.49
2841;BME280;53423;49.224;12.074;2023-03-14T05:02:19;95978.22;;;9.47;74.60
2841;BME280;53423;49.224;12.074;2023-03-14T05:04:47;95966.94;;;9.34;75.10
2841;BME280;53423;49.224;12.074;2023-03-14T05:07:15;95965.94;;;9.35;75.09
2841;BME280;53423;49.224;12.074;2023-03-14T05:09:43;95970.97;;;9.43;74.98
2841;BME280;53423;49.224;12.074;2023-03-14T05:12:11;95982.25;;;9.50;74.73
2841;BME280;53423;49.224;12.074;2023-03-14T05:14:39;95986.66;;;9.43;74.37
2841;BME280;53423;49.224;12.074;2023-03-14T05:17:08;95989.88;;;9.45;74.59
2841;BME280;53423;49.224;12.074;2023-03-14T05:19:36;95979.63;;;9.50;74.15
2841;BME280;53423;49.224;12.074;2023-03-14T05:22:04;95971.97;;;9.35;75.06
2841;BME280;53423;49.224;12.074;2023-03-14T05:24:32;95966.94;;;9.34;74.67
2841;BME280;53423;49.224;12.074;2023-03-14T05:27:00;95950.25;;;9.41;75.05
2841;BME280;53423;49.224;12.074;2023-03-14T05:29:28;95962.13;;;9.37;74.81
2841;BME280;53423;49.224;12.074;2023-03-14T05:31:56;95971.97;;;9.42;74.63
2841;BME280;53423;49.224;12.074;2023-03-14T05:34:26;95951.88;;;9.42;74.73
2841;BME280;53423;49.224;12.074;2023-03-14T05:36:54;95950.06;;;9.43;74.77
2841;BME280;53423;49.224;12.074;2023-03-14T05:39:22;95952.88;;;9.48;74.38
2841;BME280;53423;49.224;12.074;2023-03-14T05:41:50;95956.91;;;9.50;74.14
2841;BME280;53423;49.224;12.074;2023-03-14T05:44:20;95955.88;;;9.38;74.37
2841;BME280;53423;49.224;12.074;2023-03-14T05:46:48;95945.84;;;9.35;74.37
2841;BME280;53423;49.224;12.074;2023-03-14T05:49:17;95936.00;;;9.44;74.19
2841;BME280;53423;49.224;12.074;2023-03-14T05:51:46;95938.59;;;9.50;73.99
2841;BME280;53423;49.224;12.074;2023-03-14T05:54:14;95930.97;;;9.62;73.45
2841;BME280;53423;49.224;12.074;2023-03-14T05:56:42;95934.38;;;9.62;73.45
2841;BME280;53423;49.224;12.074;2023-03-14T05:59:10;95937.59;;;9.64;73.58
2841;BME280;53423;49.224;12.074;2023-03-14T06:01:40;95948.25;;;9.56;73.57
2841;BME280;53423;49.224;12.074;2023-03-14T06:04:08;95945.84;;;9.55;73.55
2841;BME280;53423;49.224;12.074;2023-03-14T06:06:36;95940.19;;;9.64;73.07
2841;BME280;53423;49.224;12.074;2023-03-14T06:09:05;95936.41;;;9.60;73.30
2841;BME280;53423;49.224;12.074;2023-03-14T06:11:33;95946.25;;;9.65;73.78
2841;BME280;53423;49.224;12.074;2023-03-14T06:14:01;95943.03;;;9.76;72.86
2841;BME280;53423;49.224;12.074;2023-03-14T06:16:29;95934.97;;;9.84;72.54
2841;BME280;53423;49.224;12.074;2023-03-14T06:18:58;95936.38;;;9.80;72.96
2841;BME280;53423;49.224;12.074;2023-03-14T06:21:26;95932.75;;;9.87;72.05
2841;BME280;53423;49.224;12.074;2023-03-14T06:23:54;95941.00;;;9.84;73.24
2841;BME280;53423;49.224;12.074;2023-03-14T06:26:23;95943.25;;;9.81;72.74
2841;BME280;53423;49.224;12.074;2023-03-14T06:28:51;95940.41;;;9.82;72.16
2841;BME280;53423;49.224;12.074;2023-03-14T06:31:20;95937.19;;;9.87;72.66
2841;BME280;53423;49.224;12.074;2023-03-14T06:33:48;95938.00;;;9.68;73.13
2841;BME280;53423;49.224;12.074;2023-03-14T06:36:16;95935.38;;;9.74;72.99
2841;BME280;53423;49.224;12.074;2023-03-14T06:38:44;95927.53;;;9.81;72.26
2841;BME280;53423;49.224;12.074;2023-03-14T06:41:11;95930.34;;;9.86;71.98
2841;BME280;53423;49.224;12.074;2023-03-14T06:43:41;95935.97;;;10.16;70.75
2841;BME280;53423;49.224;12.074;2023-03-14T06:46:09;95935.97;;;10.16;70.84
2841;BME280;53423;49.224;12.074;2023-03-14T06:48:37;95931.72;;;10.01;71.28
2841;BME280;53423;49.224;12.074;2023-03-14T06:51:05;95940.22;;;9.77;72.54
2841;BME280;53423;49.224;12.074;2023-03-14T06:53:33;95938.00;;;9.87;71.75
2841;BME280;53423;49.224;12.074;2023-03-14T06:56:01;95933.94;;;9.98;71.17
2841;BME280;53423;49.224;12.074;2023-03-14T06:58:29;95949.44;;;9.86;72.40
2841;BME280;53423;49.224;12.074;2023-03-14T07:00:58;95950.66;;;10.03;71.99
2841;BME280;53423;49.224;12.074;2023-03-14T07:03:26;95941.81;;;9.91;71.65
2841;BME280;53423;49.224;12.074;2023-03-14T07:05:54;95939.78;;;9.93;71.55
2841;BME280;53423;49.224;12.074;2023-03-14T07:08:22;95941.00;;;9.97;72.08
2841;BME280;53423;49.224;12.074;2023-03-14T07:10:50;95937.19;;;9.93;71.83
2841;BME280;53423;49.224;12.074;2023-03-14T07:13:18;95936.97;;;10.08;71.62
2841;BME280;53423;49.224;12.074;2023-03-14T07:15:46;95928.53;;;9.99;71.16
2841;BME280;53423;49.224;12.074;2023-03-14T07:18:15;95933.97;;;10.18;71.46
2841;BME280;53423;49.224;12.074;2023-03-14T07:20:44;95928.31;;;10.14;70.99
2841;BME280;53423;49.224;12.074;2023-03-14T07:23:14;95927.69;;;10.19;70.88
2841;BME280;53423;49.224;12.074;2023-03-14T07:25:42;95938.78;;;10.14;70.25
2841;BME280;53423;49.224;12.074;2023-03-14T07:28:10;95939.16;;;9.98;70.65
2841;BME280;53423;49.224;12.074;2023-03-14T07:30:38;95941.97;;;10.36;69.54
2841;BME280;53423;49.224;12.074;2023-03-14T07:33:06;95943.59;;;10.24;69.48
2841;BME280;53423;49.224;12.074;2023-03-14T07:35:38;95950.22;;;10.39;70.05
2841;BME280;53423;49.224;12.074;2023-03-14T07:38:06;95949.19;;;10.53;70.10
2841;BME280;53423;49.224;12.074;2023-03-14T07:40:34;95950.50;;;10.69;68.75
2841;BME280;53423;49.224;12.074;2023-03-14T07:43:02;95960.03;;;10.63;69.46
2841;BME280;53423;49.224;12.074;2023-03-14T07:45:30;95966.03;;;10.64;69.29
2841;BME280;53423;49.224;12.074;2023-03-14T07:47:58;95972.22;;;10.82;68.20
2841;BME280;53423;49.224;12.074;2023-03-14T07:50:26;95964.16;;;10.84;68.50
2841;BME280;53423;49.224;12.074;2023-03-14T07:52:55;95968.25;;;10.67;68.52
2841;BME280;53423;49.224;12.074;2023-03-14T07:55:23;95982.97;;;10.68;68.86
2841;BME280;53423;49.224;12.074;2023-03-14T07:57:51;95983.66;;;10.37;68.59
2841;BME280;53423;49.224;12.074;2023-03-14T08:00:20;95989.47;;;10.46;69.52
2841;BME280;53423;49.224;12.074;2023-03-14T08:02:48;95992.66;;;10.61;68.78
2841;BME280;53423;49.224;12.074;2023-03-14T08:05:16;95999.53;;;10.49;68.80
2841;BME280;53423;49.224;12.074;2023-03-14T08:07:45;96006.22;;;10.25;69.01
2841;BME280;53423;49.224;12.074;2023-03-14T08:10:15;96000.78;;;10.40;69.86
2841;BME280;53423;49.224;12.074;2023-03-14T08:12:48;95987.06;;;10.44;68.75
2841;BME280;53423;49.224;12.074;2023-03-14T08:15:17;95996.06;;;10.68;68.86
2841;BME280;53423;49.224;12.074;2023-03-14T08:17:46;95989.00;;;10.75;68.01
2841;BME280;53423;49.224;12.074;2023-03-14T08:20:17;95981.56;;;10.72;67.89
2841;BME280;53423;49.224;12.074;2023-03-14T08:22:46;95979.28;;;10.88;67.31
2841;BME280;53423;49.224;12.074;2023-03-14T08:25:15;95980.44;;;10.92;67.15
2841;BME280;53423;49.224;12.074;2023-03-14T08:27:44;95972.09;;;10.64;67.82
2841;BME280;53423;49.224;12.074;2023-03-14T08:32:44;95965.88;;;10.52;67.52
2841;BME280;53423;49.224;12.074;2023-03-14T08:35:12;95961.97;;;10.81;66.85
2841;BME280;53423;49.224;12.074;2023-03-14T08:37:41;95959.69;;;10.91;67.39
2841;BME280;53423;49.224;12.074;2023-03-14T08:40:09;95956.16;;;10.72;65.91
2841;BME280;53423;49.224;12.074;2023-03-14T08:42:40;95947.72;;;11.08;66.03
2841;BME280;53423;49.224;12.074;2023-03-14T08:45:09;95955.13;;;11.17;66.63
2841;BME280;53423;49.224;12.074;2023-03-14T08:47:38;95953.00;;;11.01;65.46
2841;BME280;53423;49.224;12.074;2023-03-14T08:50:07;95949.34;;;11.02;67.24
2841;BME280;53423;49.224;12.074;2023-03-14T08:52:35;95947.59;;;11.27;65.55
2841;BME280;53423;49.224;12.074;2023-03-14T08:55:05;95940.66;;;11.40;65.58
2841;BME280;53423;49.224;12.074;2023-03-14T08:57:33;95943.59;;;11.25;64.75
2841;BME280;53423;49.224;12.074;2023-03-14T09:00:03;95944.56;;;11.62;64.62
2841;BME280;53423;49.224;12.074;2023-03-14T09:02:36;95954.66;;;11.65;64.70
2841;BME280;53423;49.224;12.074;2023-03-14T09:05:05;95958.78;;;11.79;63.80
2841;BME280;53423;49.224;12.074;2023-03-14T09:07:33;95951.66;;;12.28;62.59
2841;BME280;53423;49.224;12.074;2023-03-14T09:10:01;95946.91;;;12.19;61.79
2841;BME280;53423;49.224;12.074;2023-03-14T09:12:30;95943.84;;;12.22;61.91
2841;BME280;53423;49.224;12.074;2023-03-14T09:14:58;95942.03;;;11.98;63.49
2841;BME280;53423;49.224;12.074;2023-03-14T09:17:27;95939.03;;;12.19;62.59
2841;BME280;53423;49.224;12.074;2023-03-14T09:19:55;95940.94;;;11.87;62.39
2841;BME280;53423;49.224;12.074;2023-03-14T09:22:26;95942.34;;;11.65;62.66
2841;BME280;53423;49.224;12.074;2023-03-14T09:24:54;95934.69;;;11.57;64.20
2841;BME280;53423;49.224;12.074;2023-03-14T09:27:22;95935.50;;;12.07;62.83
2841;BME280;53423;49.224;12.074;2023-03-14T09:29:49;95937.31;;;12.06;62.53
2841;BME280;53423;49.224;12.074;2023-03-14T09:32:17;95939.53;;;11.85;62.21
2841;BME280;53423;49.224;12.074;2023-03-14T09:34:47;95938.78;;;12.02;62.07
2841;BME280;53423;49.224;12.074;2023-03-14T09:37:15;95932.88;;;12.49;62.12
2841;BME280;53423;49.224;12.074;2023-03-14T09:39:43;95939.16;;;12.67;61.06
2841;BME280;53423;49.224;12.074;2023-03-14T09:42:14;95933.28;;;12.28;61.24
2841;BME280;53423;49.224;12.074;2023-03-14T09:44:52;95942.56;;;12.67;59.39
2841;BME280;53423;49.224;12.074;2023-03-14T09:47:23;95953.28;;;12.66;59.74
2841;BME280;53423;49.224;12.074;2023-03-14T09:49:52;95945.09;;;12.74;58.88
2841;BME280;53423;49.224;12.074;2023-03-14T09:52:24;95949.69;;;12.96;57.92
2841;BME280;53423;49.224;12.074;2023-03-14T09:54:54;95945.47;;;13.54;59.17
2841;BME280;53423;49.224;12.074;2023-03-14T09:57:26;95943.59;;;13.32;57.43
2841;BME280;53423;49.224;12.074;2023-03-14T09:59:56;95935.47;;;13.33;57.61
2841;BME280;53423;49.224;12.074;2023-03-14T10:02:31;95934.66;;;13.74;56.99
2841;BME280;53423;49.224;12.074;2023-03-14T10:05:07;95933.66;;;14.21;56.25
2841;BME280;53423;49.224;12.074;2023-03-14T10:07:36;95938.34;;;14.54;57.02
2841;BME280;53423;49.224;12.074;2023-03-14T10:10:10;95941.59;;;14.84;53.44
2841;BME280;53423;49.224;12.074;2023-03-14T10:12:39;95945.88;;;14.62;53.33
2841;BME280;53423;49.224;12.074;2023-03-14T10:15:10;95933.63;;;15.35;51.87
2841;BME280;53423;49.224;12.074;2023-03-14T10:17:39;95928.34;;;15.80;51.96
2841;BME280;53423;49.224;12.074;2023-03-14T10:20:26;95934.78;;;15.56;49.98
2841;BME280;53423;49.224;12.074;2023-03-14T10:23:00;95932.41;;;15.54;50.40
2841;BME280;53423;49.224;12.074;2023-03-14T10:25:29;95920.41;;;16.46;48.48
2841;BME280;53423;49.224;12.074;2023-03-14T10:27:58;95921.78;;;16.15;47.40
2841;BME280;53423;49.224;12.074;2023-03-14T10:30:30;95905.78;;;15.72;48.73
2841;BME280;53423;49.224;12.074;2023-03-14T10:33:07;95905.63;;;16.72;47.40
2841;BME280;53423;49.224;12.074;2023-03-14T10:35:37;95903.16;;;17.08;46.54
2841;BME280;53423;49.224;12.074;2023-03-14T10:38:05;95892.53;;;16.44;47.21
2841;BME280;53423;49.224;12.074;2023-03-14T10:40:37;95896.22;;;16.21;48.13
2841;BME280;53423;49.224;12.074;2023-03-14T10:43:13;95895.38;;;17.23;46.80
2841;BME280;53423;49.224;12.074;2023-03-14T10:45:43;95890.91;;;17.82;45.72
2841;BME280;53423;49.224;12.074;2023-03-14T10:48:20;95895.91;;;17.79;45.92
2841;BME280;53423;49.224;12.074;2023-03-14T10:50:54;95899.16;;;17.32;43.70
2841;BME280;53423;49.224;12.074;2023-03-14T10:53:22;95911.19;;;15.66;47.78
2841;BME280;53423;49.224;12.074;2023-03-14T10:55:55;95904.66;;;15.68;48.53
2841;BME280;53423;49.224;12.074;2023-03-14T10:58:25;95897.84;;;15.72;48.91
2841;BME280;53423;49.224;12.074;2023-03-14T11:01:02;95913.38;;;15.52;48.77
2841;BME280;53423;49.224;12.074;2023-03-14T11:03:35;95909.69;;;15.53;49.36
2841;BME280;53423;49.224;12.074;2023-03-14T11:06:10;95902.63;;;15.31;48.88
2841;BME280;53423;49.224;12.074;2023-03-14T11:08:45;95908.69;;;15.43;49.86
2841;BME280;53423;49.224;12.074;2023-03-14T11:11:18;95905.28;;;15.31;49.58
2841;BME280;53423;49.224;12.074;2023-03-14T11:13:56;95908.50;;;15.33;50.65
2841;BME280;53423;49.224;12.074;2023-03-14T11:16:34;95911.38;;;14.75;50.37
2841;BME280;53423;49.224;12.074;2023-03-14T11:19:32;95904.03;;;14.65;50.20
2841;BME280;53423;49.224;12.074;2023-03-14T11:22:12;95906.22;;;14.57;50.64
2841;BME280;53423;49.224;12.074;2023-03-14T11:24:52;95906.38;;;14.90;49.59
2841;BME280;53423;49.224;12.074;2023-03-14T11:27:30;95900.94;;;14.68;50.61
2841;BME280;53423;49.224;12.074;2023-03-14T11:30:06;95898.50;;;14.27;51.48
2841;BME280;53423;49.224;12.074;2023-03-14T11:32:44;95886.25;;;14.33;51.71
2841;BME280;53423;49.224;12.074;2023-03-14T11:35:19;95896.63;;;14.51;50.96
2841;BME280;53423;49.224;12.074;2023-03-14T11:37:53;95885.97;;;14.00;50.85
2841;BME280;53423;49.224;12.074;2023-03-14T11:40:23;95888.38;;;13.90;51.53
2841;BME280;53423;49.224;12.074;2023-03-14T11:43:11;95889.31;;;14.41;51.82
2841;BME280;53423;49.224;12.074;2023-03-14T11:45:41;95889.03;;;14.66;50.86
2841;BME280;53423;49.224;12.074;2023-03-14T11:48:17;95878.22;;;14.28;51.24
2841;BME280;53423;49.224;12.074;2023-03-14T11:50:52;95881.16;;;14.20;52.42
2841;BME280;53423;49.224;12.074;2023-03-14T11:53:33;95873.38;;;14.48;51.70
2841;BME280;53423;49.224;12.074;2023-03-14T11:56:03;95866.56;;;14.52;50.93
2841;BME280;53423;49.224;12.074;2023-03-14T11:58:38;95868.22;;;14.41;52.04
2841;BME280;53423;49.224;12.074;2023-03-14T12:01:11;95875.00;;;14.37;50.12
2841;BME280;53423;49.224;12.074;2023-03-14T12:03:45;95862.22;;;14.85;50.86
2841;BME280;53423;49.224;12.074;2023-03-14T12:06:22;95849.75;;;15.70;50.46
2841;BME280;53423;49.224;12.074;2023-03-14T12:08:55;95845.03;;;15.72;49.31
2841;BME280;53423;49.224;12.074;2023-03-14T12:11:32;95841.72;;;17.65;46.57
2841;BME280;53423;49.224;12.074;2023-03-14T12:14:02;95827.69;;;18.01;42.79
2841;BME280;53423;49.224;12.074;2023-03-14T12:16:35;95831.06;;;16.75;43.64
2841;BME280;53423;49.224;12.074;2023-03-14T12:19:21;95819.78;;;16.19;47.33
2841;BME280;53423;49.224;12.074;2023-03-14T12:21:54;95823.09;;;15.72;47.91
2841;BME280;53423;49.224;12.074;2023-03-14T12:24:29;95839.88;;;14.88;50.56
2841;BME280;53423;49.224;12.074;2023-03-14T12:27:00;95855.28;;;14.05;54.04
2841;BME280;53423;49.224;12.074;2023-03-14T12:29:28;95858.50;;;14.07;55.51
2841;BME280;53423;49.224;12.074;2023-03-14T12:32:20;95866.06;;;13.92;58.58
2841;BME280;53423;49.224;12.074;2023-03-14T12:34:49;95855.53;;;13.81;59.59
2841;BME280;53423;49.224;12.074;2023-03-14T12:37:23;95828.75;;;13.49;60.77
2841;BME280;53423;49.224;12.074;2023-03-14T12:40:03;95827.72;;;13.73;61.21
2841;BME280;53423;49.224;12.074;2023-03-14T12:42:40;95842.22;;;13.52;61.74
2841;BME280;53423;49.224;12.074;2023-03-14T12:45:22;95834.31;;;13.41;61.43
2841;BME280;53423;49.224;12.074;2023-03-14T12:48:06;95838.13;;;13.45;60.40
2841;BME280;53423;49.224;12.074;2023-03-14T12:50:39;95843.63;;;13.78;61.41
2841;BME280;53423;49.224;12.074;2023-03-14T12:56:28;95831.78;;;14.15;60.09
2841;BME280;53423;49.224;12.074;2023-03-14T12:59:13;95837.06;;;14.15;60.27
2841;BME280;53423;49.224;12.074;2023-03-14T13:01:48;95849.09;;;14.11;61.54
2841;BME280;53423;49.224;12.074;2023-03-14T13:04:27;95845.25;;;13.79;60.55
2841;BME280;53423;49.224;12.074;2023-03-14T13:07:10;95843.16;;;13.46;62.80
2841;BME280;53423;49.224;12.074;2023-03-14T13:10:00;95838.44;;;13.25;61.15
2841;BME280;53423;49.224;12.074;2023-03-14T13:12:37;95840.28;;;13.48;60.66
2841;BME280;53423;49.224;12.074;2023-03-14T13:15:17;95840.75;;;13.68;60.84
2841;BME280;53423;49.224;12.074;2023-03-14T13:17:46;95840.16;;;14.12;59.97
2841;BME280;53423;49.224;12.074;2023-03-14T13:20:18;95832.34;;;14.68;59.14
2841;BME280;53423;49.224;12.074;2023-03-14T13:22:49;95823.97;;;15.00;59.22
2841;BME280;53423;49.224;12.074;2023-03-14T13:25:17;95832.88;;;14.82;57.53
2841;BME280;53423;49.224;12.074;2023-03-14T13:27:51;95834.97;;;14.40;56.98